sensor_id;sensor_type;location;lat;lon;timestamp;pressure;altitude;pressure_sealevel;temperature;humidity
70338;BME280;57757;53.198;19.646;2023-07-13T00:00:38;99734.27;;;19.06;59.42
70338;BME280;57757;53.198;19.646;2023-07-13T00:03:24;99734.70;;;19.02;59.37
70338;BME280;57757;53.198;19.646;2023-07-13T00:05:58;99736.44;;;19.00;59.53
70338;BME280;57757;53.198;19.646;2023-07-13T00:08:24;99739.92;;;18.98;59.56
70338;BME280;57757;53.198;19.646;2023-07-13T00:10:52;99744.25;;;18.96;59.61
70338;BME280;57757;53.198;19.646;2023-07-13T00:13:20;99741.63;;;18.96;59.73
70338;BME280;57757;53.198;19.646;2023-07-13T00:15:46;99739.55;;;18.95;59.61
70338;BME280;57757;53.198;19.646;2023-07-13T00:18:12;99740.05;;;18.96;59.75
70338;BME280;57757;53.198;19.646;2023-07-13T00:20:38;99738.90;;;18.94;59.66
70338;BME280;57757;53.198;19.646;2023-07-13T00:23:04;99736.48;;;18.94;59.70
70338;BME280;57757;53.198;19.646;2023-07-13T00:25:30;99732.90;;;18.92;59.79
70338;BME280;57757;53.198;19.646;2023-07-13T00:27:56;99731.05;;;18.88;59.86
70338;BME280;57757;53.198;19.646;2023-07-13T00:30:23;99730.23;;;18.86;59.83
70338;BME280;57757;53.198;19.646;2023-07-13T00:32:49;99731.16;;;18.86;59.96
70338;BME280;57757;53.198;19.646;2023-07-13T00:35:25;99734.01;;;18.85;60.11
70338;BME280;57757;53.198;19.646;2023-07-13T00:37:51;99733.27;;;18.86;60.20
70338;BME280;57757;53.198;19.646;2023-07-13T00:40:17;99736.69;;;18.88;60.15
70338;BME280;57757;53.198;19.646;2023-07-13T00:42:44;99740.30;;;18.89;60.23
70338;BME280;57757;53.198;19.646;2023-07-13T00:47:40;99748.98;;;18.91;60.21
70338;BME280;57757;53.198;19.646;2023-07-13T00:50:10;99742.63;;;18.91;60.38
70338;BME280;57757;53.198;19.646;2023-07-13T00:52:41;99740.04;;;18.90;60.38
70338;BME280;57757;53.198;19.646;2023-07-13T00:55:08;99737.23;;;18.90;60.32
70338;BME280;57757;53.198;19.646;2023-07-13T00:57:35;99734.86;;;18.92;60.39
70338;BME280;57757;53.198;19.646;2023-07-13T01:00:04;99737.65;;;18.95;60.59
70338;BME280;57757;53.198;19.646;2023-07-13T01:02:33;99736.20;;;18.98;60.63
70338;BME280;57757;53.198;19.646;2023-07-13T01:04:59;99729.27;;;19.01;60.52
70338;BME280;57757;53.198;19.646;2023-07-13T01:07:27;99736.45;;;19.02;60.41
70338;BME280;57757;53.198;19.646;2023-07-13T01:09:53;99747.52;;;19.03;60.55
70338;BME280;57757;53.198;19.646;2023-07-13T01:12:20;99748.96;;;19.02;60.56
70338;BME280;57757;53.198;19.646;2023-07-13T01:14:46;99745.38;;;19.01;60.49
70338;BME280;57757;53.198;19.646;2023-07-13T01:17:20;99742.60;;;18.97;60.49
70338;BME280;57757;53.198;19.646;2023-07-13T01:19:46;99745.16;;;18.93;60.55
70338;BME280;57757;53.198;19.646;2023-07-13T01:22:15;99748.96;;;18.89;60.45
70338;BME280;57757;53.198;19.646;2023-07-13T01:24:43;99743.16;;;18.86;60.57
70338;BME280;57757;53.198;19.646;2023-07-13T01:27:13;99740.90;;;18.83;60.60
70338;BME280;57757;53.198;19.646;2023-07-13T01:29:41;99748.50;;;18.80;60.67
70338;BME280;57757;53.198;19.646;2023-07-13T01:32:17;99756.86;;;18.75;60.74
70338;BME280;57757;53.198;19.646;2023-07-13T01:34:49;99758.80;;;18.73;60.81
70338;BME280;57757;53.198;19.646;2023-07-13T01:37:15;99762.23;;;18.72;60.84
70338;BME280;57757;53.198;19.646;2023-07-13T01:39:42;99769.08;;;18.69;60.91
70338;BME280;57757;53.198;19.646;2023-07-13T01:42:08;99766.96;;;18.66;60.88
70338;BME280;57757;53.198;19.646;2023-07-13T01:44:38;99762.27;;;18.66;61.01
70338;BME280;57757;53.198;19.646;2023-07-13T01:47:04;99759.21;;;18.67;61.23
70338;BME280;57757;53.198;19.646;2023-07-13T01:49:31;99762.35;;;18.67;61.10
70338;BME280;57757;53.198;19.646;2023-07-13T01:51:57;99761.02;;;18.66;61.18
70338;BME280;57757;53.198;19.646;2023-07-13T01:54:23;99754.15;;;18.66;61.25
70338;BME280;57757;53.198;19.646;2023-07-13T01:56:49;99748.40;;;18.65;61.30
70338;BME280;57757;53.198;19.646;2023-07-13T01:59:15;99750.52;;;18.65;61.40
70338;BME280;57757;53.198;19.646;2023-07-13T02:01:41;99748.73;;;18.65;61.46
70338;BME280;57757;53.198;19.646;2023-07-13T02:04:07;99745.63;;;18.67;61.47
70338;BME280;57757;53.198;19.646;2023-07-13T02:06:33;99749.95;;;18.68;61.53
70338;BME280;57757;53.198;19.646;2023-07-13T02:08:59;99747.58;;;18.70;61.48
70338;BME280;57757;53.198;19.646;2023-07-13T02:11:25;99740.36;;;18.69;61.46
70338;BME280;57757;53.198;19.646;2023-07-13T02:14:00;99736.33;;;18.69;61.51
70338;BME280;57757;53.198;19.646;2023-07-13T02:16:28;99730.61;;;18.68;61.53
70338;BME280;57757;53.198;19.646;2023-07-13T02:18:54;99727.70;;;18.63;61.54
70338;BME280;57757;53.198;19.646;2023-07-13T02:21:22;99732.19;;;18.59;61.52
70338;BME280;57757;53.198;19.646;2023-07-13T02:23:49;99734.63;;;18.56;61.51
70338;BME280;57757;53.198;19.646;2023-07-13T02:26:15;99735.43;;;18.55;61.65
70338;BME280;57757;53.198;19.646;2023-07-13T02:28:41;99733.75;;;18.54;61.55
70338;BME280;57757;53.198;19.646;2023-07-13T02:31:09;99729.38;;;18.54;61.66
70338;BME280;57757;53.198;19.646;2023-07-13T02:33:36;99736.45;;;18.53;61.55
70338;BME280;57757;53.198;19.646;2023-07-13T02:36:02;99738.21;;;18.53;61.56
70338;BME280;57757;53.198;19.646;2023-07-13T02:38:29;99737.02;;;18.52;61.63
70338;BME280;57757;53.198;19.646;2023-07-13T02:40:55;99737.80;;;18.51;61.64
70338;BME280;57757;53.198;19.646;2023-07-13T02:43:21;99736.81;;;18.50;61.80
70338;BME280;57757;53.198;19.646;2023-07-13T02:45:47;99732.96;;;18.49;61.85
70338;BME280;57757;53.198;19.646;2023-07-13T02:48:14;99731.89;;;18.50;61.91
70338;BME280;57757;53.198;19.646;2023-07-13T02:50:40;99734.45;;;18.51;62.01
70338;BME280;57757;53.198;19.646;2023-07-13T02:53:06;99736.21;;;18.51;61.97
70338;BME280;57757;53.198;19.646;2023-07-13T02:55:32;99739.26;;;18.50;61.87
70338;BME280;57757;53.198;19.646;2023-07-13T02:57:58;99746.27;;;18.51;62.02
70338;BME280;57757;53.198;19.646;2023-07-13T03:00:24;99743.59;;;18.51;62.14
70338;BME280;57757;53.198;19.646;2023-07-13T03:02:50;99740.73;;;18.52;62.08
70338;BME280;57757;53.198;19.646;2023-07-13T03:05:16;99741.41;;;18.52;62.19
70338;BME280;57757;53.198;19.646;2023-07-13T03:07:42;99744.73;;;18.53;62.20
70338;BME280;57757;53.198;19.646;2023-07-13T03:10:10;99746.71;;;18.55;62.19
70338;BME280;57757;53.198;19.646;2023-07-13T03:12:36;99745.00;;;18.54;62.19
70338;BME280;57757;53.198;19.646;2023-07-13T03:15:02;99746.30;;;18.56;62.30
70338;BME280;57757;53.198;19.646;2023-07-13T03:17:28;99746.51;;;18.58;62.35
70338;BME280;57757;53.198;19.646;2023-07-13T03:19:54;99748.60;;;18.62;62.22
70338;BME280;57757;53.198;19.646;2023-07-13T03:22:20;99739.89;;;18.66;62.44
70338;BME280;57757;53.198;19.646;2023-07-13T03:24:47;99737.83;;;18.67;62.28
70338;BME280;57757;53.198;19.646;2023-07-13T03:27:16;99739.32;;;18.66;62.17
70338;BME280;57757;53.198;19.646;2023-07-13T03:29:43;99739.56;;;18.68;62.34
70338;BME280;57757;53.198;19.646;2023-07-13T03:32:09;99742.02;;;18.71;62.40
70338;BME280;57757;53.198;19.646;2023-07-13T03:34:36;99739.77;;;18.73;62.44
70338;BME280;57757;53.198;19.646;2023-07-13T03:37:02;99732.21;;;18.75;62.43
70338;BME280;57757;53.198;19.646;2023-07-13T03:39:28;99734.71;;;18.78;62.55
70338;BME280;57757;53.198;19.646;2023-07-13T03:41:54;99740.19;;;18.80;62.58
70338;BME280;57757;53.198;19.646;2023-07-13T03:44:20;99735.64;;;18.82;62.66
70338;BME280;57757;53.198;19.646;2023-07-13T03:46:46;99730.70;;;18.85;62.62
70338;BME280;57757;53.198;19.646;2023-07-13T03:49:12;99729.96;;;18.86;62.53
70338;BME280;57757;53.198;19.646;2023-07-13T03:51:38;99735.36;;;18.86;62.54
70338;BME280;57757;53.198;19.646;2023-07-13T03:54:04;99742.52;;;18.88;62.50
70338;BME280;57757;53.198;19.646;2023-07-13T03:56:30;99746.96;;;18.87;62.60
70338;BME280;57757;53.198;19.646;2023-07-13T03:58:58;99752.55;;;18.87;62.42
70338;BME280;57757;53.198;19.646;2023-07-13T04:01:24;99752.20;;;18.88;62.50
70338;BME280;57757;53.198;19.646;2023-07-13T04:03:52;99755.59;;;18.87;62.50
70338;BME280;57757;53.198;19.646;2023-07-13T04:06:21;99764.42;;;18.87;62.58
70338;BME280;57757;53.198;19.646;2023-07-13T04:08:52;99767.23;;;18.87;62.52
70338;BME280;57757;53.198;19.646;2023-07-13T04:11:20;99766.55;;;18.87;62.55
70338;BME280;57757;53.198;19.646;2023-07-13T04:13:47;99766.82;;;18.85;62.44
70338;BME280;57757;53.198;19.646;2023-07-13T04:16:14;99771.13;;;18.84;62.59
70338;BME280;57757;53.198;19.646;2023-07-13T04:18:41;99768.33;;;18.83;62.53
70338;BME280;57757;53.198;19.646;2023-07-13T04:21:08;99771.75;;;18.83;62.55
70338;BME280;57757;53.198;19.646;2023-07-13T04:23:38;99773.00;;;18.82;62.65
70338;BME280;57757;53.198;19.646;2023-07-13T04:26:04;99777.83;;;18.84;62.70
70338;BME280;57757;53.198;19.646;2023-07-13T04:28:30;99785.21;;;18.87;62.77
70338;BME280;57757;53.198;19.646;2023-07-13T04:30:56;99787.73;;;18.91;62.74
70338;BME280;57757;53.198;19.646;2023-07-13T04:33:23;99795.08;;;18.97;62.86
70338;BME280;57757;53.198;19.646;2023-07-13T04:35:50;99797.89;;;19.06;62.91
70338;BME280;57757;53.198;19.646;2023-07-13T04:38:20;99797.66;;;19.15;62.97
70338;BME280;57757;53.198;19.646;2023-07-13T04:40:47;99802.48;;;19.27;63.07
70338;BME280;57757;53.198;19.646;2023-07-13T04:43:13;99806.79;;;19.40;63.01
70338;BME280;57757;53.198;19.646;2023-07-13T04:45:41;99805.52;;;19.51;63.13
70338;BME280;57757;53.198;19.646;2023-07-13T04:48:07;99806.31;;;19.63;63.01
70338;BME280;57757;53.198;19.646;2023-07-13T04:50:36;99806.02;;;19.73;62.90
70338;BME280;57757;53.198;19.646;2023-07-13T04:53:02;99809.29;;;19.81;62.81
70338;BME280;57757;53.198;19.646;2023-07-13T04:55:30;99808.05;;;19.92;62.86
70338;BME280;57757;53.198;19.646;2023-07-13T04:57:57;99813.97;;;20.03;62.88
70338;BME280;57757;53.198;19.646;2023-07-13T05:00:26;99812.01;;;20.14;62.98
70338;BME280;57757;53.198;19.646;2023-07-13T05:02:54;99819.09;;;20.24;62.83
70338;BME280;57757;53.198;19.646;2023-07-13T05:05:21;99825.86;;;20.31;62.75
70338;BME280;57757;53.198;19.646;2023-07-13T05:07:47;99827.05;;;20.37;62.83
70338;BME280;57757;53.198;19.646;2023-07-13T05:10:15;99831.92;;;20.43;62.63
70338;BME280;57757;53.198;19.646;2023-07-13T05:12:41;99834.45;;;20.47;62.68
70338;BME280;57757;53.198;19.646;2023-07-13T05:15:07;99831.77;;;20.53;62.76
70338;BME280;57757;53.198;19.646;2023-07-13T05:17:34;99836.11;;;20.59;62.75
70338;BME280;57757;53.198;19.646;2023-07-13T05:20:00;99839.56;;;20.65;62.69
70338;BME280;57757;53.198;19.646;2023-07-13T05:22:26;99836.54;;;20.70;62.76
70338;BME280;57757;53.198;19.646;2023-07-13T05:24:52;99845.27;;;20.77;62.58
70338;BME280;57757;53.198;19.646;2023-07-13T05:27:18;99851.10;;;20.81;62.49
70338;BME280;57757;53.198;19.646;2023-07-13T05:29:44;99855.80;;;20.82;62.47
70338;BME280;57757;53.198;19.646;2023-07-13T05:32:10;99860.53;;;20.86;62.30
70338;BME280;57757;53.198;19.646;2023-07-13T05:34:36;99857.16;;;20.88;62.12
70338;BME280;57757;53.198;19.646;2023-07-13T05:37:03;99853.27;;;20.91;62.07
70338;BME280;57757;53.198;19.646;2023-07-13T05:39:29;99850.38;;;20.94;62.35
70338;BME280;57757;53.198;19.646;2023-07-13T05:41:55;99848.73;;;21.00;62.40
70338;BME280;57757;53.198;19.646;2023-07-13T05:44:21;99850.61;;;21.08;62.39
70338;BME280;57757;53.198;19.646;2023-07-13T05:46:47;99856.30;;;21.15;62.30
70338;BME280;57757;53.198;19.646;2023-07-13T05:49:13;99865.23;;;21.23;62.21
70338;BME280;57757;53.198;19.646;2023-07-13T05:51:39;99863.42;;;21.31;62.17
70338;BME280;57757;53.198;19.646;2023-07-13T05:54:05;99856.45;;;21.40;62.23
70338;BME280;57757;53.198;19.646;2023-07-13T05:56:31;99859.95;;;21.50;62.25
70338;BME280;57757;53.198;19.646;2023-07-13T05:58:57;99864.44;;;21.59;61.98
70338;BME280;57757;53.198;19.646;2023-07-13T06:01:23;99870.18;;;21.67;61.83
70338;BME280;57757;53.198;19.646;2023-07-13T06:03:49;99871.41;;;21.77;61.91
70338;BME280;57757;53.198;19.646;2023-07-13T06:06:16;99875.21;;;21.90;61.72
70338;BME280;57757;53.198;19.646;2023-07-13T06:08:43;99875.33;;;22.02;61.62
70338;BME280;57757;53.198;19.646;2023-07-13T06:11:15;99877.11;;;22.19;61.72
70338;BME280;57757;53.198;19.646;2023-07-13T06:13:41;99881.93;;;22.39;61.47
70338;BME280;57757;53.198;19.646;2023-07-13T06:16:07;99886.84;;;22.55;61.15
70338;BME280;57757;53.198;19.646;2023-07-13T06:18:35;99886.50;;;22.64;60.75
70338;BME280;57757;53.198;19.646;2023-07-13T06:21:12;99889.52;;;22.69;60.57
70338;BME280;57757;53.198;19.646;2023-07-13T06:23:39;99892.84;;;22.72;60.34
70338;BME280;57757;53.198;19.646;2023-07-13T06:26:06;99897.54;;;22.73;60.29
70338;BME280;57757;53.198;19.646;2023-07-13T06:28:33;99895.96;;;22.73;59.98
70338;BME280;57757;53.198;19.646;2023-07-13T06:31:11;99890.50;;;22.77;59.80
70338;BME280;57757;53.198;19.646;2023-07-13T06:33:40;99882.05;;;22.78;59.45
70338;BME280;57757;53.198;19.646;2023-07-13T06:36:08;99872.16;;;22.84;59.64
70338;BME280;57757;53.198;19.646;2023-07-13T06:38:37;99865.52;;;22.94;59.45
70338;BME280;57757;53.198;19.646;2023-07-13T06:41:06;99868.13;;;23.04;59.66
70338;BME280;57757;53.198;19.646;2023-07-13T06:43:34;99872.10;;;23.18;59.65
70338;BME280;57757;53.198;19.646;2023-07-13T06:46:02;99875.13;;;23.31;59.45
70338;BME280;57757;53.198;19.646;2023-07-13T06:48:29;99874.64;;;23.42;59.23
70338;BME280;57757;53.198;19.646;2023-07-13T06:50:57;99870.91;;;23.51;59.16
70338;BME280;57757;53.198;19.646;2023-07-13T06:53:24;99872.36;;;23.61;59.08
70338;BME280;57757;53.198;19.646;2023-07-13T06:55:52;99872.31;;;23.72;58.99
70338;BME280;57757;53.198;19.646;2023-07-13T06:58:21;99874.23;;;23.81;58.98
70338;BME280;57757;53.198;19.646;2023-07-13T07:00:51;99869.81;;;23.87;58.84
70338;BME280;57757;53.198;19.646;2023-07-13T07:03:19;99861.95;;;23.94;58.69
70338;BME280;57757;53.198;19.646;2023-07-13T07:05:47;99853.63;;;23.98;58.47
70338;BME280;57757;53.198;19.646;2023-07-13T07:08:15;99845.79;;;24.02;58.26
70338;BME280;57757;53.198;19.646;2023-07-13T07:10:42;99849.27;;;24.07;58.10
70338;BME280;57757;53.198;19.646;2023-07-13T07:13:10;99849.17;;;24.11;58.07
70338;BME280;57757;53.198;19.646;2023-07-13T07:15:37;99849.96;;;24.14;58.06
70338;BME280;57757;53.198;19.646;2023-07-13T07:18:05;99852.13;;;24.20;58.03
70338;BME280;57757;53.198;19.646;2023-07-13T07:20:32;99855.48;;;24.26;57.63
70338;BME280;57757;53.198;19.646;2023-07-13T07:23:00;99866.16;;;24.43;57.79
70338;BME280;57757;53.198;19.646;2023-07-13T07:25:28;99873.31;;;24.57;57.42
70338;BME280;57757;53.198;19.646;2023-07-13T07:27:59;99875.95;;;24.67;56.74
70338;BME280;57757;53.198;19.646;2023-07-13T07:30:29;99871.64;;;24.72;56.46
70338;BME280;57757;53.198;19.646;2023-07-13T07:33:00;99869.77;;;24.75;56.34
70338;BME280;57757;53.198;19.646;2023-07-13T07:35:32;99864.12;;;24.85;56.37
70338;BME280;57757;53.198;19.646;2023-07-13T07:38:05;99861.95;;;24.95;55.94
70338;BME280;57757;53.198;19.646;2023-07-13T07:40:37;99860.60;;;25.04;55.94
70338;BME280;57757;53.198;19.646;2023-07-13T07:43:09;99862.48;;;25.11;55.75
70338;BME280;57757;53.198;19.646;2023-07-13T07:45:37;99863.85;;;25.14;55.56
70338;BME280;57757;53.198;19.646;2023-07-13T07:48:06;99866.59;;;25.21;55.70
70338;BME280;57757;53.198;19.646;2023-07-13T07:50:34;99875.12;;;25.26;55.38
70338;BME280;57757;53.198;19.646;2023-07-13T07:53:02;99881.11;;;25.26;55.22
70338;BME280;57757;53.198;19.646;2023-07-13T07:55:29;99877.40;;;25.30;55.21
70338;BME280;57757;53.198;19.646;2023-07-13T07:58:00;99877.63;;;25.37;55.19
70338;BME280;57757;53.198;19.646;2023-07-13T08:00:31;99877.39;;;25.46;55.10
70338;BME280;57757;53.198;19.646;2023-07-13T08:03:19;99878.29;;;25.49;54.43
70338;BME280;57757;53.198;19.646;2023-07-13T08:05:53;99877.45;;;25.51;54.54
70338;BME280;57757;53.198;19.646;2023-07-13T08:08:24;99879.27;;;25.48;54.31
70338;BME280;57757;53.198;19.646;2023-07-13T08:10:53;99879.70;;;25.44;54.28
70338;BME280;57757;53.198;19.646;2023-07-13T08:13:27;99869.77;;;25.39;54.01
70338;BME280;57757;53.198;19.646;2023-07-13T08:15:55;99867.34;;;25.33;54.00
70338;BME280;57757;53.198;19.646;2023-07-13T08:18:22;99870.15;;;25.31;53.87
70338;BME280;57757;53.198;19.646;2023-07-13T08:20:49;99872.08;;;25.36;53.77
70338;BME280;57757;53.198;19.646;2023-07-13T08:23:17;99867.86;;;25.46;53.91
70338;BME280;57757;53.198;19.646;2023-07-13T08:25:51;99862.50;;;25.57;53.91
70338;BME280;57757;53.198;19.646;2023-07-13T08:28:20;99871.57;;;25.63;53.66
70338;BME280;57757;53.198;19.646;2023-07-13T08:30:47;99873.27;;;25.59;53.09
70338;BME280;57757;53.198;19.646;2023-07-13T08:33:19;99877.73;;;25.54;52.87
70338;BME280;57757;53.198;19.646;2023-07-13T08:35:48;99882.21;;;25.57;52.90
70338;BME280;57757;53.198;19.646;2023-07-13T08:38:17;99885.86;;;25.68;52.98
70338;BME280;57757;53.198;19.646;2023-07-13T08:40:51;99881.76;;;25.76;52.87
70338;BME280;57757;53.198;19.646;2023-07-13T08:43:24;99883.34;;;25.78;52.60
70338;BME280;57757;53.198;19.646;2023-07-13T08:48:44;99879.63;;;25.78;51.97
70338;BME280;57757;53.198;19.646;2023-07-13T08:54:07;99875.30;;;25.90;51.46
70338;BME280;57757;53.198;19.646;2023-07-13T08:56:37;99875.94;;;26.00;51.29
70338;BME280;57757;53.198;19.646;2023-07-13T08:59:14;99877.15;;;26.08;50.95
70338;BME280;57757;53.198;19.646;2023-07-13T09:04:21;99881.08;;;26.28;50.64
70338;BME280;57757;53.198;19.646;2023-07-13T09:12:43;99889.25;;;26.73;49.93
70338;BME280;57757;53.198;19.646;2023-07-13T09:15:35;99890.28;;;26.77;49.49
70338;BME280;57757;53.198;19.646;2023-07-13T09:18:16;99888.29;;;26.89;49.52
70338;BME280;57757;53.198;19.646;2023-07-13T09:21:10;99885.42;;;27.13;49.23
70338;BME280;57757;53.198;19.646;2023-07-13T09:23:41;99892.16;;;27.32;48.99
70338;BME280;57757;53.198;19.646;2023-07-13T09:26:25;99895.61;;;27.38;48.75
70338;BME280;57757;53.198;19.646;2023-07-13T09:29:06;99897.21;;;27.31;48.39
70338;BME280;57757;53.198;19.646;2023-07-13T09:31:49;99898.06;;;27.28;48.11
70338;BME280;57757;53.198;19.646;2023-07-13T09:34:20;99894.09;;;27.23;47.84
70338;BME280;57757;53.198;19.646;2023-07-13T09:36:48;99888.13;;;27.11;47.54
70338;BME280;57757;53.198;19.646;2023-07-13T09:39:40;99885.18;;;27.00;47.42
70338;BME280;57757;53.198;19.646;2023-07-13T09:42:15;99894.66;;;26.87;47.42
70338;BME280;57757;53.198;19.646;2023-07-13T09:47:31;99901.76;;;26.73;46.97
70338;BME280;57757;53.198;19.646;2023-07-13T09:50:01;99902.92;;;26.59;46.77
70338;BME280;57757;53.198;19.646;2023-07-13T09:52:41;99904.52;;;26.46;46.73
70338;BME280;57757;53.198;19.646;2023-07-13T09:57:52;99904.39;;;26.10;46.61
70338;BME280;57757;53.198;19.646;2023-07-13T10:00:25;99898.09;;;25.96;46.89
70338;BME280;57757;53.198;19.646;2023-07-13T10:03:17;99895.41;;;25.90;46.82
70338;BME280;57757;53.198;19.646;2023-07-13T10:05:47;99894.96;;;25.85;46.82
70338;BME280;57757;53.198;19.646;2023-07-13T10:08:26;99893.36;;;25.89;46.70
70338;BME280;57757;53.198;19.646;2023-07-13T10:11:00;99894.38;;;25.93;46.84
70338;BME280;57757;53.198;19.646;2023-07-13T10:13:34;99892.70;;;25.90;46.50
70338;BME280;57757;53.198;19.646;2023-07-13T10:16:06;99891.53;;;25.92;46.59
70338;BME280;57757;53.198;19.646;2023-07-13T10:18:51;99888.35;;;25.93;46.30
70338;BME280;57757;53.198;19.646;2023-07-13T10:21:22;99888.10;;;26.02;46.43
70338;BME280;57757;53.198;19.646;2023-07-13T10:24:14;99891.11;;;26.13;46.36
70338;BME280;57757;53.198;19.646;2023-07-13T10:29:41;99883.33;;;26.75;46.38
70338;BME280;57757;53.198;19.646;2023-07-13T10:32:12;99875.51;;;27.06;45.89
70338;BME280;57757;53.198;19.646;2023-07-13T10:34:43;99877.30;;;27.30;45.59
70338;BME280;57757;53.198;19.646;2023-07-13T10:37:18;99879.73;;;27.51;45.56
70338;BME280;57757;53.198;19.646;2023-07-13T10:39:49;99877.02;;;27.74;45.24
70338;BME280;57757;53.198;19.646;2023-07-13T10:42:38;99878.11;;;27.90;44.88
70338;BME280;57757;53.198;19.646;2023-07-13T10:45:34;99879.31;;;28.10;44.89
70338;BME280;57757;53.198;19.646;2023-07-13T10:48:03;99872.98;;;28.39;44.87
70338;BME280;57757;53.198;19.646;2023-07-13T10:50:31;99868.45;;;28.67;44.66
70338;BME280;57757;53.198;19.646;2023-07-13T10:58:41;99859.13;;;29.55;44.23
70338;BME280;57757;53.198;19.646;2023-07-13T11:01:17;99859.89;;;29.71;43.80
70338;BME280;57757;53.198;19.646;2023-07-13T11:04:02;99860.61;;;30.12;44.08
70338;BME280;57757;53.198;19.646;2023-07-13T11:06:36;99862.56;;;30.62;43.64
70338;BME280;57757;53.198;19.646;2023-07-13T11:11:49;99864.71;;;31.14;42.86
70338;BME280;57757;53.198;19.646;2023-07-13T11:14:36;99866.84;;;31.28;42.38
70338;BME280;57757;53.198;19.646;2023-07-13T11:22:50;99869.02;;;32.33;41.87
70338;BME280;57757;53.198;19.646;2023-07-13T11:25:35;99871.37;;;32.35;41.19
70338;BME280;57757;53.198;19.646;2023-07-13T11:33:20;99877.59;;;31.36;40.56
70338;BME280;57757;53.198;19.646;2023-07-13T11:36:07;99882.44;;;30.95;40.20
70338;BME280;57757;53.198;19.646;2023-07-13T11:38:45;99886.02;;;30.40;40.00
70338;BME280;57757;53.198;19.646;2023-07-13T11:41:21;99887.38;;;29.88;39.92
70338;BME280;57757;53.198;19.646;2023-07-13T11:43:53;99886.73;;;29.23;39.96
70338;BME280;57757;53.198;19.646;2023-07-13T11:46:27;99893.80;;;28.76;40.18
70338;BME280;57757;53.198;19.646;2023-07-13T11:48:55;99901.11;;;28.28;40.12
70338;BME280;57757;53.198;19.646;2023-07-13T11:51:25;99902.48;;;27.86;40.15
70338;BME280;57757;53.198;19.646;2023-07-13T11:53:56;99911.94;;;27.47;40.08
70338;BME280;57757;53.198;19.646;2023-07-13T11:56:25;99922.17;;;27.00;40.25
70338;BME280;57757;53.198;19.646;2023-07-13T11:58:55;99930.45;;;26.41;40.41
70338;BME280;57757;53.198;19.646;2023-07-13T12:01:30;99931.45;;;25.70;40.71
70338;BME280;57757;53.198;19.646;2023-07-13T12:04:03;99939.38;;;25.13;41.32
70338;BME280;57757;53.198;19.646;2023-07-13T12:06:33;99947.70;;;24.68;41.82
70338;BME280;57757;53.198;19.646;2023-07-13T12:09:13;99952.35;;;24.28;42.05
70338;BME280;57757;53.198;19.646;2023-07-13T12:11:42;99950.27;;;23.96;42.34
70338;BME280;57757;53.198;19.646;2023-07-13T12:14:18;99954.84;;;23.71;42.37
70338;BME280;57757;53.198;19.646;2023-07-13T12:16:47;99950.77;;;23.42;42.45
70338;BME280;57757;53.198;19.646;2023-07-13T12:19:27;99956.66;;;23.19;42.51
70338;BME280;57757;53.198;19.646;2023-07-13T12:21:57;99959.80;;;22.90;42.42
70338;BME280;57757;53.198;19.646;2023-07-13T12:24:26;99964.30;;;22.69;42.38
70338;BME280;57757;53.198;19.646;2023-07-13T12:26:59;99963.58;;;22.53;42.62
70338;BME280;57757;53.198;19.646;2023-07-13T12:29:32;99953.02;;;22.35;42.45
70338;BME280;57757;53.198;19.646;2023-07-13T12:32:00;99951.03;;;22.22;42.60
70338;BME280;57757;53.198;19.646;2023-07-13T12:34:27;99946.02;;;22.07;42.76
70338;BME280;57757;53.198;19.646;2023-07-13T12:36:58;99941.05;;;21.95;42.90
70338;BME280;57757;53.198;19.646;2023-07-13T12:39:46;99937.20;;;21.87;43.16
70338;BME280;57757;53.198;19.646;2023-07-13T12:42:25;99935.95;;;21.80;43.32
70338;BME280;57757;53.198;19.646;2023-07-13T12:44:56;99930.73;;;21.72;43.28
70338;BME280;57757;53.198;19.646;2023-07-13T12:47:25;99924.29;;;21.65;43.29
70338;BME280;57757;53.198;19.646;2023-07-13T12:49:55;99917.73;;;21.61;43.52
70338;BME280;57757;53.198;19.646;2023-07-13T12:52:33;99916.82;;;21.59;43.43
70338;BME280;57757;53.198;19.646;2023-07-13T12:55:12;99914.24;;;21.58;43.43
70338;BME280;57757;53.198;19.646;2023-07-13T12:57:51;99910.22;;;21.59;43.38
70338;BME280;57757;53.198;19.646;2023-07-13T13:00:25;99907.43;;;21.63;43.45
70338;BME280;57757;53.198;19.646;2023-07-13T13:02:56;99904.98;;;21.70;43.40
70338;BME280;57757;53.198;19.646;2023-07-13T13:05:44;99903.43;;;21.81;43.58
70338;BME280;57757;53.198;19.646;2023-07-13T13:08:15;99904.61;;;21.92;43.46
70338;BME280;57757;53.198;19.646;2023-07-13T13:10:42;99900.28;;;21.98;43.48
70338;BME280;57757;53.198;19.646;2023-07-13T13:13:10;99900.08;;;22.03;43.45
70338;BME280;57757;53.198;19.646;2023-07-13T13:15:37;99898.55;;;22.09;43.58
70338;BME280;57757;53.198;19.646;2023-07-13T13:18:15;99897.94;;;22.15;43.52
70338;BME280;57757;53.198;19.646;2023-07-13T13:20:43;99900.72;;;22.20;43.57
70338;BME280;57757;53.198;19.646;2023-07-13T13:23:16;99900.42;;;22.26;43.62
70338;BME280;57757;53.198;19.646;2023-07-13T13:25:47;99899.40;;;22.34;43.58
70338;BME280;57757;53.198;19.646;2023-07-13T13:28:17;99902.66;;;22.43;43.50
70338;BME280;57757;53.198;19.646;2023-07-13T13:30:48;99902.80;;;22.51;43.51
70338;BME280;57757;53.198;19.646;2023-07-13T13:33:17;99903.97;;;22.54;43.48
70338;BME280;57757;53.198;19.646;2023-07-13T13:35:45;99903.98;;;22.61;43.62
70338;BME280;57757;53.198;19.646;2023-07-13T13:38:15;99900.85;;;22.69;43.64
70338;BME280;57757;53.198;19.646;2023-07-13T13:40:44;99903.75;;;22.79;43.57
70338;BME280;57757;53.198;19.646;2023-07-13T13:43:22;99906.98;;;22.86;43.59
70338;BME280;57757;53.198;19.646;2023-07-13T13:45:56;99910.52;;;22.95;43.67
70338;BME280;57757;53.198;19.646;2023-07-13T13:48:34;99907.89;;;23.06;43.65